createdAt,value
2023-03-01T00:00:19.799Z,40.13
2023-03-01T00:02:46.934Z,35.83
2023-03-01T00:05:14.066Z,34.97
2023-03-01T00:07:41.196Z,35.27
2023-03-01T00:10:08.499Z,38.87
2023-03-01T00:12:37.437Z,38.63
2023-03-01T00:15:05.784Z,39.73
2023-03-01T00:17:32.969Z,44.90
2023-03-01T00:20:00.115Z,43.73
2023-03-01T00:22:29.466Z,44.10
2023-03-01T00:24:56.604Z,39.80
2023-03-01T00:27:23.725Z,41.50
2023-03-01T00:29:50.841Z,41.03
2023-03-01T00:32:18.032Z,38.30
2023-03-01T00:34:54.948Z,35.03
2023-03-01T00:37:25.336Z,38.20
2023-03-01T00:39:52.493Z,39.80
2023-03-01T00:42:19.661Z,38.40
2023-03-01T00:44:46.824Z,36.30
2023-03-01T00:47:14.888Z,32.50
2023-03-01T00:49:42.035Z,35.63
2023-03-01T00:52:09.232Z,33.93
2023-03-01T00:54:36.339Z,33.87
2023-03-01T00:57:03.466Z,37.77
2023-03-01T00:59:30.614Z,34.97
2023-03-01T01:01:57.725Z,38.60
2023-03-01T01:04:24.858Z,37.73
2023-03-01T01:06:52.040Z,38.10
2023-03-01T01:09:19.265Z,44.83
2023-03-01T01:11:49.873Z,42.70
2023-03-01T01:14:17.112Z,39.47
2023-03-01T01:16:44.313Z,41.33
2023-03-01T01:19:12.278Z,39.13
2023-03-01T01:21:39.450Z,40.47
2023-03-01T01:24:06.722Z,38.57
2023-03-01T01:26:34.659Z,39.10
2023-03-01T01:29:01.958Z,36.23
2023-03-01T01:31:29.264Z,40.23
2023-03-01T01:33:56.530Z,38.13
2023-03-01T01:36:23.804Z,39.97
2023-03-01T01:38:50.926Z,40.40
2023-03-01T01:41:18.082Z,40.43
2023-03-01T01:43:46.243Z,37.63
2023-03-01T01:46:19.402Z,37.60
2023-03-01T01:49:06.848Z,35.97
2023-03-01T01:51:39.355Z,37.57
2023-03-01T01:54:16.562Z,37.77
2023-03-01T01:56:44.406Z,33.80
2023-03-01T01:59:11.628Z,29.20
2023-03-01T02:01:38.793Z,23.77
2023-03-01T02:04:07.469Z,20.67
2023-03-01T02:06:35.945Z,18.53
2023-03-01T02:09:04.333Z,21.40
2023-03-01T02:11:31.753Z,25.47
2023-03-01T02:13:58.946Z,34.23
2023-03-01T02:16:26.126Z,29.13
2023-03-01T02:18:53.450Z,29.50
2023-03-01T02:21:23.392Z,27.90
2023-03-01T02:23:50.531Z,29.17
2023-03-01T02:26:35.622Z,29.83
2023-03-01T02:29:02.778Z,29.53
2023-03-01T02:31:45.965Z,29.97
2023-03-01T02:34:17.199Z,29.53
2023-03-01T02:36:45.775Z,29.47
2023-03-01T02:39:15.422Z,31.63
2023-03-01T02:41:43.004Z,30.70
2023-03-01T02:44:10.131Z,33.77
2023-03-01T02:46:43.153Z,35.80
2023-03-01T02:49:22.301Z,28.50
2023-03-01T02:51:58.246Z,31.13
2023-03-01T02:54:43.950Z,33.20
2023-03-01T02:57:11.177Z,27.70
2023-03-01T02:59:41.648Z,28.27
2023-03-01T03:02:09.071Z,31.77
2023-03-01T03:04:36.269Z,32.43
2023-03-01T03:07:03.386Z,30.90
2023-03-01T03:09:30.533Z,29.67
2023-03-01T03:11:57.715Z,33.57
2023-03-01T03:14:24.822Z,31.23
2023-03-01T03:16:52.009Z,33.83
2023-03-01T03:19:19.696Z,33.50
2023-03-01T03:21:46.832Z,34.27
2023-03-01T03:24:14.044Z,34.40
2023-03-01T03:26:41.217Z,32.57
2023-03-01T03:29:08.688Z,30.13
2023-03-01T03:31:35.861Z,31.17
2023-03-01T03:34:03.100Z,33.27
2023-03-01T03:36:30.459Z,32.20
2023-03-01T03:38:57.766Z,33.30
2023-03-01T03:41:24.937Z,35.43
2023-03-01T03:43:52.094Z,33.00
2023-03-01T03:46:19.278Z,29.43
2023-03-01T03:48:46.818Z,33.77
2023-03-01T03:51:14.714Z,32.37
2023-03-01T03:53:42.058Z,33.27
2023-03-01T03:56:09.381Z,37.73
2023-03-01T03:58:36.556Z,41.10
2023-03-01T04:01:03.724Z,51.87
2023-03-01T04:03:31.342Z,46.50
2023-03-01T04:05:59.132Z,41.77
2023-03-01T04:08:26.325Z,47.53
2023-03-01T04:10:54.085Z,47.73
2023-03-01T04:13:22.040Z,51.17
2023-03-01T04:15:55.444Z,52.23
2023-03-01T04:18:23.642Z,45.90
2023-03-01T04:20:53.128Z,48.60
2023-03-01T04:23:21.697Z,47.23
2023-03-01T04:25:54.599Z,48.13
2023-03-01T04:28:31.451Z,45.10
2023-03-01T04:30:59.013Z,43.73
2023-03-01T04:33:26.479Z,44.20
2023-03-01T04:35:53.800Z,43.60
2023-03-01T04:38:22.199Z,41.60
2023-03-01T04:40:49.484Z,38.80
2023-03-01T04:43:16.648Z,39.53
2023-03-01T04:45:43.988Z,39.07
2023-03-01T04:48:11.123Z,37.27
2023-03-01T04:50:38.342Z,38.77
2023-03-01T04:53:05.461Z,36.53
2023-03-01T04:55:32.734Z,33.37
2023-03-01T04:58:00.026Z,31.63
2023-03-01T05:00:27.209Z,36.33
2023-03-01T05:02:55.360Z,43.57
2023-03-01T05:05:27.323Z,44.97
2023-03-01T05:07:55.157Z,43.80
2023-03-01T05:10:22.459Z,38.67
2023-03-01T05:12:49.649Z,41.87
2023-03-01T05:15:16.844Z,40.17
2023-03-01T05:17:44.008Z,36.67
2023-03-01T05:20:11.878Z,39.10
2023-03-01T05:22:39.509Z,38.17
2023-03-01T05:25:08.146Z,40.13
2023-03-01T05:27:35.558Z,40.43
2023-03-01T05:30:14.191Z,44.90
2023-03-01T05:32:42.379Z,47.13
2023-03-01T05:35:09.586Z,40.17
2023-03-01T05:37:36.794Z,42.10
2023-03-01T05:40:04.752Z,40.63
2023-03-01T05:42:31.852Z,40.80
2023-03-01T05:44:58.967Z,40.20
2023-03-01T05:47:26.152Z,43.43
2023-03-01T05:49:53.331Z,46.20
2023-03-01T05:52:20.472Z,38.20
2023-03-01T05:54:47.676Z,52.00
2023-03-01T05:57:15.741Z,52.97
2023-03-01T05:59:43.061Z,57.63
2023-03-01T06:02:10.304Z,51.37
2023-03-01T06:04:37.424Z,48.80
2023-03-01T06:07:04.577Z,46.80
2023-03-01T06:09:31.784Z,37.13
2023-03-01T06:11:58.906Z,30.77
2023-03-01T06:14:26.069Z,30.27
2023-03-01T06:16:53.226Z,30.40
2023-03-01T06:19:20.452Z,31.50
2023-03-01T06:21:47.664Z,32.83
2023-03-01T06:24:14.806Z,37.63
2023-03-01T06:26:42.782Z,47.03
2023-03-01T06:29:09.905Z,82.10
2023-03-01T06:31:37.094Z,89.07
2023-03-01T06:34:04.343Z,86.80
2023-03-01T06:36:31.845Z,79.07
2023-03-01T06:38:59.335Z,77.17
2023-03-01T06:41:26.721Z,63.63
2023-03-01T06:43:55.396Z,56.67
2023-03-01T06:46:22.769Z,73.60
2023-03-01T06:48:51.872Z,88.50
2023-03-01T06:51:20.217Z,91.03
2023-03-01T06:53:47.754Z,85.07
2023-03-01T06:56:14.891Z,79.53
2023-03-01T06:58:42.030Z,53.70
2023-03-01T07:01:09.527Z,44.83
2023-03-01T07:03:36.689Z,44.17
2023-03-01T07:06:03.886Z,38.27
2023-03-01T07:08:31.039Z,35.27
2023-03-01T07:10:58.745Z,33.43
2023-03-01T07:13:25.956Z,31.53
2023-03-01T07:15:53.244Z,28.63
2023-03-01T07:18:20.454Z,28.50
2023-03-01T07:20:47.568Z,29.03
2023-03-01T07:23:14.746Z,28.10
2023-03-01T07:25:41.880Z,28.60
2023-03-01T07:28:09.020Z,24.33
2023-03-01T07:30:36.166Z,23.20
2023-03-01T07:33:03.480Z,23.80
2023-03-01T07:35:30.700Z,22.97
2023-03-01T07:37:57.873Z,24.37
2023-03-01T07:40:24.996Z,26.90
2023-03-01T07:42:56.603Z,25.97
2023-03-01T07:45:23.878Z,26.73
2023-03-01T07:47:51.909Z,29.50
2023-03-01T07:50:19.097Z,25.77
2023-03-01T07:52:49.446Z,22.57
2023-03-01T07:55:16.761Z,24.67
2023-03-01T07:57:44.045Z,23.07
2023-03-01T08:00:12.110Z,26.20
2023-03-01T08:02:39.803Z,22.60
2023-03-01T08:05:07.005Z,23.93
2023-03-01T08:07:34.591Z,25.07
2023-03-01T08:10:01.790Z,26.40
2023-03-01T08:12:29.146Z,24.70
2023-03-01T08:14:56.381Z,28.10
2023-03-01T08:17:23.493Z,26.20
2023-03-01T08:19:50.602Z,25.60
2023-03-01T08:22:17.781Z,23.17
2023-03-01T08:24:44.910Z,21.30
2023-03-01T08:27:13.141Z,23.07
2023-03-01T08:29:40.323Z,21.97
2023-03-01T08:32:07.572Z,20.37
2023-03-01T08:34:36.515Z,19.00
2023-03-01T08:37:03.816Z,21.80
2023-03-01T08:39:31.017Z,24.97
2023-03-01T08:41:58.497Z,25.70
2023-03-01T08:44:25.942Z,29.77
2023-03-01T08:46:55.395Z,26.37
2023-03-01T08:49:22.609Z,24.37
2023-03-01T08:51:49.962Z,26.73
2023-03-01T08:54:17.961Z,28.03
2023-03-01T08:56:45.098Z,22.83
2023-03-01T08:59:12.847Z,22.73
2023-03-01T09:01:41.072Z,19.33
2023-03-01T09:06:35.567Z,16.70
2023-03-01T09:09:02.842Z,17.50
2023-03-01T09:11:30.499Z,16.10
2023-03-01T09:13:57.676Z,17.50
2023-03-01T09:16:24.988Z,16.30
2023-03-01T09:18:52.857Z,16.50
2023-03-01T09:21:30.617Z,17.80
2023-03-01T09:24:06.180Z,15.40
2023-03-01T09:26:33.728Z,15.77
2023-03-01T09:29:01.102Z,19.33
2023-03-01T09:31:28.451Z,18.83
2023-03-01T09:33:55.903Z,18.20
2023-03-01T09:36:24.155Z,18.23
2023-03-01T09:38:51.336Z,17.20
2023-03-01T09:41:26.336Z,16.37
2023-03-01T09:43:56.433Z,18.23
2023-03-01T09:46:24.243Z,19.67
2023-03-01T09:48:51.476Z,17.53
2023-03-01T09:51:23.612Z,17.93
2023-03-01T09:53:50.724Z,17.67
2023-03-01T09:56:24.439Z,18.85
2023-03-01T09:58:54.705Z,17.33
2023-03-01T10:01:24.711Z,16.95
2023-03-01T10:03:54.651Z,16.77
2023-03-01T10:06:34.388Z,14.15
2023-03-01T10:09:04.108Z,16.02
2023-03-01T10:11:35.116Z,15.63
2023-03-01T10:14:17.569Z,10.77
2023-03-01T10:16:50.706Z,12.07
2023-03-01T10:19:44.007Z,14.90
2023-03-01T10:22:15.898Z,13.43
2023-03-01T10:24:43.072Z,13.95
2023-03-01T10:27:20.932Z,17.23
2023-03-01T10:29:50.684Z,16.95
2023-03-01T10:32:18.150Z,15.07
2023-03-01T10:34:45.407Z,15.10
2023-03-01T10:37:16.292Z,14.80
2023-03-01T10:39:58.471Z,16.67
2023-03-01T10:42:29.572Z,15.07
2023-03-01T10:44:56.739Z,16.35
2023-03-01T10:47:25.643Z,14.50
2023-03-01T10:49:57.520Z,13.00
2023-03-01T10:52:25.762Z,13.73
2023-03-01T10:55:15.923Z,13.30
2023-03-01T10:57:43.253Z,16.20
2023-03-01T11:00:18.558Z,12.85
2023-03-01T11:02:46.985Z,16.88
2023-03-01T11:05:14.133Z,15.65
2023-03-01T11:07:54.619Z,15.23
2023-03-01T11:10:25.732Z,15.48
2023-03-01T11:12:55.771Z,15.68
2023-03-01T11:15:24.570Z,13.40
2023-03-01T11:17:57.069Z,15.40
2023-03-01T11:20:37.615Z,14.93
2023-03-01T11:23:07.568Z,17.00
2023-03-01T11:25:36.238Z,14.95
2023-03-01T11:28:03.956Z,16.17
2023-03-01T11:30:33.042Z,13.90
2023-03-01T11:33:09.480Z,14.10
2023-03-01T11:35:38.640Z,14.25
2023-03-01T11:38:17.725Z,14.93
2023-03-01T11:41:00.217Z,15.82
2023-03-01T11:43:50.620Z,14.50
2023-03-01T11:46:30.115Z,14.43
2023-03-01T11:49:03.669Z,15.98
2023-03-01T11:51:33.881Z,16.48
2023-03-01T11:54:01.147Z,15.63
2023-03-01T11:56:39.786Z,15.93
2023-03-01T11:59:25.339Z,17.38
2023-03-01T12:01:55.724Z,17.15
2023-03-01T12:04:41.584Z,15.65
2023-03-01T12:07:18.013Z,15.95
2023-03-01T12:09:48.029Z,18.23
2023-03-01T12:12:27.075Z,14.50
2023-03-01T12:14:59.950Z,14.10
2023-03-01T12:17:27.402Z,16.60
2023-03-01T12:19:57.766Z,14.00
2023-03-01T12:22:27.989Z,14.18
2023-03-01T12:25:01.502Z,15.05
2023-03-01T12:27:37.929Z,17.02
2023-03-01T12:30:05.040Z,15.23
2023-03-01T12:32:36.651Z,16.17
2023-03-01T12:35:03.876Z,13.55
2023-03-01T12:37:36.836Z,13.65
2023-03-01T12:40:25.728Z,13.43
2023-03-01T12:42:58.500Z,14.18
2023-03-01T12:45:52.228Z,14.20
2023-03-01T12:48:19.383Z,15.25
2023-03-01T12:50:48.204Z,14.82
2023-03-01T12:53:22.176Z,16.48
2023-03-01T12:55:49.286Z,16.38
2023-03-01T12:58:34.131Z,18.30
2023-03-01T13:01:15.375Z,14.73
2023-03-01T13:04:01.404Z,14.23
2023-03-01T13:06:43.772Z,14.38
2023-03-01T13:09:31.204Z,13.48
2023-03-01T13:11:58.687Z,14.00
2023-03-01T13:14:25.800Z,15.88
2023-03-01T13:16:53.348Z,16.02
2023-03-01T13:19:21.114Z,15.07
2023-03-01T13:21:48.580Z,16.83
2023-03-01T13:24:28.532Z,16.90
2023-03-01T13:27:22.990Z,15.05
2023-03-01T13:29:50.186Z,14.25
2023-03-01T13:32:38.144Z,13.45
2023-03-01T13:35:17.795Z,15.85
2023-03-01T13:37:45.389Z,18.60
2023-03-01T13:40:21.766Z,21.05
2023-03-01T13:42:59.220Z,19.92
2023-03-01T13:45:38.291Z,18.55
2023-03-01T13:48:10.368Z,19.60
2023-03-01T13:50:41.745Z,19.98
2023-03-01T13:53:11.885Z,17.65
2023-03-01T13:56:05.123Z,17.67
2023-03-01T13:58:33.025Z,17.30
2023-03-01T14:01:00.290Z,17.80
2023-03-01T14:03:27.667Z,17.95
2023-03-01T14:06:13.368Z,25.65
2023-03-01T14:08:44.132Z,22.98
2023-03-01T14:11:20.317Z,20.33
2023-03-01T14:13:47.455Z,17.40
2023-03-01T14:16:19.803Z,17.92
2023-03-01T14:18:54.088Z,17.38
2023-03-01T14:21:21.198Z,17.45
2023-03-01T14:23:48.344Z,23.73
2023-03-01T14:26:15.503Z,20.42
2023-03-01T14:28:43.849Z,17.20
2023-03-01T14:31:29.950Z,19.88
2023-03-01T14:33:57.133Z,20.63
2023-03-01T14:36:31.350Z,38.28
2023-03-01T14:39:05.893Z,26.60
2023-03-01T14:41:36.388Z,25.95
2023-03-01T14:44:05.119Z,21.55
2023-03-01T14:46:39.331Z,23.33
2023-03-01T14:49:19.855Z,22.77
2023-03-01T14:52:00.665Z,21.65
2023-03-01T14:54:38.743Z,20.58
2023-03-01T14:57:05.907Z,22.17
2023-03-01T14:59:34.488Z,26.00
2023-03-01T15:02:01.835Z,26.42
2023-03-01T15:04:29.196Z,29.55
2023-03-01T15:06:56.666Z,26.58
2023-03-01T15:09:23.856Z,21.67
2023-03-01T15:11:51.033Z,27.33
2023-03-01T15:14:52.017Z,60.88
2023-03-01T15:17:22.149Z,44.88
2023-03-01T15:19:49.270Z,23.52
2023-03-01T15:22:19.239Z,67.47
2023-03-01T15:24:50.371Z,29.88
2023-03-01T15:27:19.519Z,24.70
2023-03-01T15:29:50.365Z,15.95
2023-03-01T15:32:31.311Z,12.60
2023-03-01T15:34:59.234Z,12.50
2023-03-01T15:37:41.987Z,10.95
2023-03-01T15:40:21.419Z,11.98
2023-03-01T15:42:48.594Z,13.10
2023-03-01T15:45:21.590Z,12.93
2023-03-01T15:48:09.060Z,19.55
2023-03-01T15:50:36.984Z,18.33
2023-03-01T15:53:07.781Z,20.85
2023-03-01T15:55:34.958Z,19.47
2023-03-01T15:58:03.062Z,16.42
2023-03-01T16:00:30.310Z,17.63
2023-03-01T16:02:57.532Z,15.40
2023-03-01T16:05:25.973Z,13.73
2023-03-01T16:07:53.323Z,39.92
2023-03-01T16:10:20.545Z,37.23
2023-03-01T16:12:48.460Z,45.17
2023-03-01T16:15:17.125Z,50.97
2023-03-01T16:17:44.253Z,45.40
2023-03-01T16:20:19.690Z,40.10
2023-03-01T16:22:50.272Z,41.67
2023-03-01T16:25:18.396Z,41.53
2023-03-01T16:27:46.012Z,46.27
2023-03-01T16:30:13.877Z,49.80
2023-03-01T16:32:41.557Z,46.50
2023-03-01T16:35:10.015Z,43.10
2023-03-01T16:37:37.413Z,43.03
2023-03-01T16:40:05.353Z,50.23
2023-03-01T16:42:35.840Z,43.43
2023-03-01T16:45:07.105Z,42.67
2023-03-01T16:47:38.590Z,45.67
2023-03-01T16:50:05.909Z,52.63
2023-03-01T16:52:33.232Z,45.73
2023-03-01T16:55:00.400Z,47.67
2023-03-01T16:57:27.616Z,52.23
2023-03-01T16:59:54.886Z,69.37
2023-03-01T17:02:22.063Z,54.13
2023-03-01T17:04:55.596Z,56.83
2023-03-01T17:07:23.135Z,53.73
2023-03-01T17:09:50.323Z,48.23
2023-03-01T17:12:17.533Z,47.73
2023-03-01T17:14:44.718Z,49.27
2023-03-01T17:17:12.130Z,57.50
2023-03-01T17:19:44.467Z,56.93
2023-03-01T17:22:13.863Z,59.20
2023-03-01T17:24:41.151Z,54.90
2023-03-01T17:27:08.409Z,56.97
2023-03-01T17:29:35.732Z,54.47
2023-03-01T17:32:03.115Z,52.63
2023-03-01T17:34:31.646Z,53.37
2023-03-01T17:36:58.883Z,56.53
2023-03-01T17:39:30.855Z,59.03
2023-03-01T17:41:58.657Z,61.87
2023-03-01T17:44:25.941Z,56.30
2023-03-01T17:46:53.097Z,53.47
2023-03-01T17:49:20.454Z,51.00
2023-03-01T17:51:47.593Z,48.90
2023-03-01T17:54:14.741Z,70.50
2023-03-01T17:56:42.796Z,69.00
2023-03-01T17:59:09.956Z,67.90
2023-03-01T18:01:39.876Z,63.40
2023-03-01T18:04:07.066Z,54.03
2023-03-01T18:06:34.449Z,50.17
2023-03-01T18:09:03.023Z,48.67
2023-03-01T18:11:32.495Z,49.87
2023-03-01T18:13:59.831Z,52.23
2023-03-01T18:16:28.133Z,54.63
2023-03-01T18:18:55.730Z,56.33
2023-03-01T18:21:23.668Z,69.27
2023-03-01T18:23:51.396Z,91.03
2023-03-01T18:26:22.255Z,74.07
2023-03-01T18:28:51.614Z,65.17
2023-03-01T18:31:19.011Z,63.80
2023-03-01T18:33:46.606Z,56.97
2023-03-01T18:36:19.600Z,55.07
2023-03-01T18:38:47.299Z,56.83
2023-03-01T18:41:14.467Z,69.40
2023-03-01T18:43:41.645Z,61.53
2023-03-01T18:46:08.874Z,55.37
2023-03-01T18:48:36.951Z,50.70
2023-03-01T18:51:12.539Z,57.27
2023-03-01T18:53:40.355Z,77.70
2023-03-01T18:56:09.267Z,84.93
2023-03-01T18:58:39.000Z,80.80
2023-03-01T19:01:08.346Z,94.20
2023-03-01T19:03:36.131Z,66.27
2023-03-01T19:06:05.184Z,64.50
2023-03-01T19:08:32.438Z,81.27
2023-03-01T19:11:00.517Z,105.90
2023-03-01T19:13:29.223Z,95.37
2023-03-01T19:16:03.561Z,99.27
2023-03-01T19:18:30.778Z,98.80
2023-03-01T19:21:03.824Z,83.80
2023-03-01T19:23:34.842Z,63.67
2023-03-01T19:26:03.214Z,58.53
2023-03-01T19:28:31.775Z,55.87
2023-03-01T19:31:19.317Z,49.87
2023-03-01T19:33:46.620Z,56.93
2023-03-01T19:36:14.596Z,49.83
2023-03-01T19:38:42.147Z,50.47
2023-03-01T19:41:10.299Z,64.87
2023-03-01T19:43:37.499Z,60.80
2023-03-01T19:46:06.073Z,69.43
2023-03-01T19:48:36.579Z,69.33
2023-03-01T19:51:05.136Z,95.00
2023-03-01T19:53:32.357Z,109.80
2023-03-01T19:56:00.218Z,115.80
2023-03-01T19:58:29.591Z,96.70
2023-03-01T20:01:00.863Z,92.93
2023-03-01T20:03:32.338Z,86.30
2023-03-01T20:06:02.574Z,66.53
2023-03-01T20:08:30.606Z,61.90
2023-03-01T20:11:04.527Z,64.20
2023-03-01T20:13:31.828Z,72.83
2023-03-01T20:16:00.503Z,64.90
2023-03-01T20:18:27.865Z,86.50
2023-03-01T20:20:55.048Z,124.37
2023-03-01T20:23:23.544Z,116.13
2023-03-01T20:25:50.900Z,81.90
2023-03-01T20:28:18.482Z,59.17
2023-03-01T20:30:47.942Z,54.90
2023-03-01T20:33:16.155Z,57.23
2023-03-01T20:35:43.554Z,70.00
2023-03-01T20:38:10.760Z,76.93
2023-03-01T20:40:38.241Z,96.30
2023-03-01T20:43:08.213Z,115.77
2023-03-01T20:45:38.857Z,127.20
2023-03-01T20:48:07.453Z,102.60
2023-03-01T20:50:34.632Z,115.93
2023-03-01T20:53:02.346Z,93.20
2023-03-01T20:55:29.493Z,129.03
2023-03-01T20:57:57.275Z,138.40
2023-03-01T21:00:24.512Z,142.83
2023-03-01T21:02:52.217Z,134.33
2023-03-01T21:05:31.621Z,134.00
2023-03-01T21:08:01.150Z,131.93
2023-03-01T21:10:30.523Z,131.20
2023-03-01T21:12:58.332Z,98.93
2023-03-01T21:15:29.293Z,96.70
2023-03-01T21:17:57.542Z,78.50
2023-03-01T21:20:24.712Z,85.43
2023-03-01T21:22:51.889Z,77.30
2023-03-01T21:25:19.072Z,94.40
2023-03-01T21:27:46.245Z,117.30
2023-03-01T21:30:14.189Z,122.63
2023-03-01T21:32:41.425Z,118.83
2023-03-01T21:35:08.824Z,127.27
2023-03-01T21:37:36.095Z,155.97
2023-03-01T21:40:04.401Z,121.40
2023-03-01T21:42:33.292Z,98.73
2023-03-01T21:45:00.461Z,92.60
2023-03-01T21:47:27.653Z,94.47
2023-03-01T21:49:54.800Z,95.03
2023-03-01T21:52:21.976Z,87.93
2023-03-01T21:54:51.241Z,86.87
2023-03-01T21:57:18.408Z,83.33
2023-03-01T21:59:46.862Z,78.17
2023-03-01T22:02:17.328Z,79.87
2023-03-01T22:04:45.367Z,77.87
2023-03-01T22:07:12.505Z,68.57
2023-03-01T22:09:39.745Z,72.23
2023-03-01T22:12:06.993Z,74.00
2023-03-01T22:14:35.026Z,82.27
2023-03-01T22:17:02.369Z,80.03
2023-03-01T22:19:30.235Z,65.43
2023-03-01T22:21:57.470Z,60.47
2023-03-01T22:24:25.205Z,83.13
2023-03-01T22:26:52.536Z,74.27
2023-03-01T22:29:26.699Z,86.83
2023-03-01T22:31:54.305Z,75.77
2023-03-01T22:34:21.718Z,74.07
2023-03-01T22:36:49.125Z,55.37
2023-03-01T22:39:16.935Z,80.53
2023-03-01T22:41:45.625Z,82.90
2023-03-01T22:44:13.458Z,87.77
2023-03-01T22:46:40.700Z,88.97
2023-03-01T22:49:07.934Z,96.67
2023-03-01T22:51:35.971Z,93.83
2023-03-01T22:54:03.165Z,93.30
2023-03-01T22:56:31.411Z,99.30
2023-03-01T22:58:59.410Z,91.73
2023-03-01T23:01:26.647Z,77.47
2023-03-01T23:03:53.857Z,79.67
2023-03-01T23:06:21.178Z,72.70
2023-03-01T23:08:51.699Z,75.70
2023-03-01T23:11:19.138Z,75.87
2023-03-01T23:13:46.331Z,71.13
2023-03-01T23:16:13.450Z,72.53
2023-03-01T23:18:40.704Z,73.67
2023-03-01T23:21:11.767Z,70.23
2023-03-01T23:23:39.010Z,79.00
2023-03-01T23:26:06.141Z,78.23
2023-03-01T23:28:33.483Z,75.40
2023-03-01T23:31:01.555Z,66.47
2023-03-01T23:33:28.810Z,72.83
2023-03-01T23:35:56.018Z,69.17
2023-03-01T23:38:23.237Z,65.47
2023-03-01T23:40:50.368Z,63.70
2023-03-01T23:43:17.541Z,64.90
2023-03-01T23:45:44.763Z,65.30
2023-03-01T23:48:12.466Z,59.63
2023-03-01T23:50:42.331Z,59.90
2023-03-01T23:53:10.432Z,55.10
2023-03-01T23:55:37.899Z,55.90
2023-03-01T23:58:05.444Z,54.23
